sensor_id;sensor_type;location;lat;lon;timestamp;P1;durP1;ratioP1;P2;durP2;ratioP2
434;SDS011;204;48.942;9.256;2023-10-09T00:01:04;12.05;;;9.23;;
434;SDS011;204;48.942;9.256;2023-10-09T00:03:37;11.18;;;9.00;;
434;SDS011;204;48.942;9.256;2023-10-09T00:06:04;10.23;;;9.18;;
434;SDS011;204;48.942;9.256;2023-10-09T00:08:30;10.93;;;9.52;;
434;SDS011;204;48.942;9.256;2023-10-09T00:10:56;10.00;;;8.13;;
434;SDS011;204;48.942;9.256;2023-10-09T00:13:39;9.98;;;7.78;;
434;SDS011;204;48.942;9.256;2023-10-09T00:16:14;11.65;;;8.85;;
434;SDS011;204;48.942;9.256;2023-10-09T00:18:59;12.45;;;9.25;;
434;SDS011;204;48.942;9.256;2023-10-09T00:21:39;10.93;;;9.32;;
434;SDS011;204;48.942;9.256;2023-10-09T00:24:12;10.07;;;8.80;;
434;SDS011;204;48.942;9.256;2023-10-09T00:26:43;10.90;;;9.57;;
434;SDS011;204;48.942;9.256;2023-10-09T00:29:13;10.90;;;9.20;;
434;SDS011;204;48.942;9.256;2023-10-09T00:31:43;13.90;;;9.10;;
434;SDS011;204;48.942;9.256;2023-10-09T00:34:18;17.73;;;8.93;;
434;SDS011;204;48.942;9.256;2023-10-09T00:36:48;11.35;;;9.75;;
434;SDS011;204;48.942;9.256;2023-10-09T00:39:17;13.23;;;9.52;;
434;SDS011;204;48.942;9.256;2023-10-09T00:41:48;13.52;;;9.30;;
434;SDS011;204;48.942;9.256;2023-10-09T00:44:13;13.53;;;8.60;;
434;SDS011;204;48.942;9.256;2023-10-09T00:46:39;10.97;;;9.10;;
434;SDS011;204;48.942;9.256;2023-10-09T00:49:08;14.00;;;9.02;;
434;SDS011;204;48.942;9.256;2023-10-09T00:51:35;14.85;;;9.80;;
434;SDS011;204;48.942;9.256;2023-10-09T00:54:14;14.00;;;10.40;;
434;SDS011;204;48.942;9.256;2023-10-09T00:56:40;14.10;;;10.73;;
434;SDS011;204;48.942;9.256;2023-10-09T00:59:09;13.57;;;9.32;;
434;SDS011;204;48.942;9.256;2023-10-09T01:01:40;11.18;;;8.80;;
434;SDS011;204;48.942;9.256;2023-10-09T01:04:10;10.63;;;8.50;;
434;SDS011;204;48.942;9.256;2023-10-09T01:06:43;13.65;;;9.05;;
434;SDS011;204;48.942;9.256;2023-10-09T01:09:13;12.40;;;8.90;;
434;SDS011;204;48.942;9.256;2023-10-09T01:11:40;11.90;;;8.70;;
434;SDS011;204;48.942;9.256;2023-10-09T01:14:24;13.13;;;9.02;;
434;SDS011;204;48.942;9.256;2023-10-09T01:16:49;13.57;;;9.03;;
434;SDS011;204;48.942;9.256;2023-10-09T01:19:19;12.52;;;9.80;;
434;SDS011;204;48.942;9.256;2023-10-09T01:21:48;19.08;;;13.68;;
434;SDS011;204;48.942;9.256;2023-10-09T01:24:15;17.88;;;14.23;;
434;SDS011;204;48.942;9.256;2023-10-09T01:26:41;14.20;;;13.00;;
434;SDS011;204;48.942;9.256;2023-10-09T01:29:21;15.43;;;12.57;;
434;SDS011;204;48.942;9.256;2023-10-09T01:31:53;16.60;;;11.35;;
434;SDS011;204;48.942;9.256;2023-10-09T01:34:38;13.38;;;11.80;;
434;SDS011;204;48.942;9.256;2023-10-09T01:37:24;15.98;;;10.75;;
434;SDS011;204;48.942;9.256;2023-10-09T01:39:56;16.40;;;10.27;;
434;SDS011;204;48.942;9.256;2023-10-09T01:42:45;18.58;;;10.65;;
434;SDS011;204;48.942;9.256;2023-10-09T01:45:11;13.97;;;11.07;;
434;SDS011;204;48.942;9.256;2023-10-09T01:47:57;13.32;;;9.73;;
434;SDS011;204;48.942;9.256;2023-10-09T01:50:23;12.27;;;9.60;;
434;SDS011;204;48.942;9.256;2023-10-09T01:53:00;14.88;;;9.02;;
434;SDS011;204;48.942;9.256;2023-10-09T01:55:31;13.30;;;8.90;;
434;SDS011;204;48.942;9.256;2023-10-09T01:58:10;12.63;;;9.20;;
434;SDS011;204;48.942;9.256;2023-10-09T02:00:47;13.45;;;8.63;;
434;SDS011;204;48.942;9.256;2023-10-09T02:03:15;13.77;;;8.57;;
434;SDS011;204;48.942;9.256;2023-10-09T02:05:41;14.73;;;8.70;;
434;SDS011;204;48.942;9.256;2023-10-09T02:08:07;12.63;;;9.60;;
434;SDS011;204;48.942;9.256;2023-10-09T02:10:37;12.15;;;8.55;;
434;SDS011;204;48.942;9.256;2023-10-09T02:13:12;11.75;;;9.23;;
434;SDS011;204;48.942;9.256;2023-10-09T02:15:42;12.65;;;8.48;;
434;SDS011;204;48.942;9.256;2023-10-09T02:18:09;12.88;;;9.25;;
434;SDS011;204;48.942;9.256;2023-10-09T02:20:48;13.07;;;7.60;;
434;SDS011;204;48.942;9.256;2023-10-09T02:23:27;12.80;;;8.38;;
434;SDS011;204;48.942;9.256;2023-10-09T02:26:08;10.82;;;9.13;;
434;SDS011;204;48.942;9.256;2023-10-09T02:28:35;13.18;;;9.65;;
434;SDS011;204;48.942;9.256;2023-10-09T02:31:02;13.25;;;9.35;;
434;SDS011;204;48.942;9.256;2023-10-09T02:33:35;13.10;;;8.02;;
434;SDS011;204;48.942;9.256;2023-10-09T02:36:04;12.05;;;8.65;;
434;SDS011;204;48.942;9.256;2023-10-09T02:38:33;13.35;;;9.15;;
434;SDS011;204;48.942;9.256;2023-10-09T02:41:05;11.73;;;8.30;;
434;SDS011;204;48.942;9.256;2023-10-09T02:43:32;10.90;;;8.23;;
434;SDS011;204;48.942;9.256;2023-10-09T02:46:02;11.30;;;7.80;;
434;SDS011;204;48.942;9.256;2023-10-09T02:48:53;10.48;;;7.10;;
434;SDS011;204;48.942;9.256;2023-10-09T02:51:22;10.63;;;7.97;;
434;SDS011;204;48.942;9.256;2023-10-09T02:53:52;12.48;;;9.60;;
434;SDS011;204;48.942;9.256;2023-10-09T02:56:18;14.05;;;10.05;;
434;SDS011;204;48.942;9.256;2023-10-09T02:58:50;13.38;;;9.30;;
434;SDS011;204;48.942;9.256;2023-10-09T03:01:16;14.27;;;9.25;;
434;SDS011;204;48.942;9.256;2023-10-09T03:03:42;14.80;;;10.27;;
434;SDS011;204;48.942;9.256;2023-10-09T03:06:12;12.57;;;9.90;;
434;SDS011;204;48.942;9.256;2023-10-09T03:08:39;12.05;;;8.65;;
434;SDS011;204;48.942;9.256;2023-10-09T03:11:07;10.25;;;8.63;;
434;SDS011;204;48.942;9.256;2023-10-09T03:13:40;13.30;;;9.05;;
434;SDS011;204;48.942;9.256;2023-10-09T03:16:08;11.88;;;9.07;;
434;SDS011;204;48.942;9.256;2023-10-09T03:18:39;10.75;;;8.45;;
434;SDS011;204;48.942;9.256;2023-10-09T03:21:05;12.33;;;9.00;;
434;SDS011;204;48.942;9.256;2023-10-09T03:23:31;11.05;;;9.52;;
434;SDS011;204;48.942;9.256;2023-10-09T03:25:57;14.38;;;9.38;;
434;SDS011;204;48.942;9.256;2023-10-09T03:28:24;13.45;;;9.88;;
434;SDS011;204;48.942;9.256;2023-10-09T03:30:49;12.60;;;9.27;;
434;SDS011;204;48.942;9.256;2023-10-09T03:33:15;15.03;;;9.90;;
434;SDS011;204;48.942;9.256;2023-10-09T03:35:42;14.65;;;9.13;;
434;SDS011;204;48.942;9.256;2023-10-09T03:38:08;9.30;;;8.80;;
434;SDS011;204;48.942;9.256;2023-10-09T03:40:44;10.02;;;8.52;;
434;SDS011;204;48.942;9.256;2023-10-09T03:43:13;9.43;;;8.93;;
434;SDS011;204;48.942;9.256;2023-10-09T03:45:39;12.82;;;9.52;;
434;SDS011;204;48.942;9.256;2023-10-09T03:48:17;9.07;;;8.57;;
434;SDS011;204;48.942;9.256;2023-10-09T03:50:48;8.38;;;6.78;;
434;SDS011;204;48.942;9.256;2023-10-09T03:53:13;12.73;;;7.80;;
434;SDS011;204;48.942;9.256;2023-10-09T03:55:40;10.17;;;8.67;;
434;SDS011;204;48.942;9.256;2023-10-09T03:58:06;11.90;;;8.02;;
434;SDS011;204;48.942;9.256;2023-10-09T04:00:32;12.13;;;8.23;;
434;SDS011;204;48.942;9.256;2023-10-09T04:03:06;10.02;;;7.63;;
434;SDS011;204;48.942;9.256;2023-10-09T04:05:31;10.03;;;7.80;;
434;SDS011;204;48.942;9.256;2023-10-09T04:07:57;15.63;;;8.47;;
434;SDS011;204;48.942;9.256;2023-10-09T04:10:27;9.27;;;7.80;;
434;SDS011;204;48.942;9.256;2023-10-09T04:13:09;12.45;;;8.10;;
434;SDS011;204;48.942;9.256;2023-10-09T04:15:37;14.40;;;9.25;;
434;SDS011;204;48.942;9.256;2023-10-09T04:18:03;12.35;;;8.43;;
434;SDS011;204;48.942;9.256;2023-10-09T04:20:31;13.85;;;8.90;;
434;SDS011;204;48.942;9.256;2023-10-09T04:23:22;11.63;;;9.73;;
434;SDS011;204;48.942;9.256;2023-10-09T04:26:00;11.52;;;8.93;;
434;SDS011;204;48.942;9.256;2023-10-09T04:28:35;10.45;;;9.13;;
434;SDS011;204;48.942;9.256;2023-10-09T04:31:01;13.30;;;9.55;;
434;SDS011;204;48.942;9.256;2023-10-09T04:33:31;11.68;;;8.50;;
434;SDS011;204;48.942;9.256;2023-10-09T04:36:06;12.47;;;9.20;;
434;SDS011;204;48.942;9.256;2023-10-09T04:38:51;14.07;;;10.07;;
434;SDS011;204;48.942;9.256;2023-10-09T04:41:24;14.48;;;9.30;;
434;SDS011;204;48.942;9.256;2023-10-09T04:43:53;13.48;;;8.80;;
434;SDS011;204;48.942;9.256;2023-10-09T04:46:30;12.00;;;9.77;;
434;SDS011;204;48.942;9.256;2023-10-09T04:49:09;17.55;;;11.20;;
434;SDS011;204;48.942;9.256;2023-10-09T04:51:59;11.00;;;9.73;;
434;SDS011;204;48.942;9.256;2023-10-09T04:54:32;12.38;;;10.35;;
434;SDS011;204;48.942;9.256;2023-10-09T04:57:26;12.70;;;11.73;;
434;SDS011;204;48.942;9.256;2023-10-09T04:59:52;16.73;;;11.80;;
434;SDS011;204;48.942;9.256;2023-10-09T05:02:23;17.27;;;12.35;;
434;SDS011;204;48.942;9.256;2023-10-09T05:05:01;15.10;;;12.30;;
434;SDS011;204;48.942;9.256;2023-10-09T05:07:42;17.13;;;12.93;;
434;SDS011;204;48.942;9.256;2023-10-09T05:10:20;16.73;;;11.30;;
434;SDS011;204;48.942;9.256;2023-10-09T05:12:50;16.55;;;11.52;;
434;SDS011;204;48.942;9.256;2023-10-09T05:15:23;15.32;;;10.73;;
434;SDS011;204;48.942;9.256;2023-10-09T05:17:54;19.35;;;12.38;;
434;SDS011;204;48.942;9.256;2023-10-09T05:20:22;13.60;;;11.05;;
434;SDS011;204;48.942;9.256;2023-10-09T05:22:48;15.88;;;11.80;;
434;SDS011;204;48.942;9.256;2023-10-09T05:25:26;15.98;;;10.95;;
434;SDS011;204;48.942;9.256;2023-10-09T05:28:11;13.80;;;10.52;;
434;SDS011;204;48.942;9.256;2023-10-09T05:30:55;13.45;;;10.57;;
434;SDS011;204;48.942;9.256;2023-10-09T05:33:52;14.30;;;11.05;;
434;SDS011;204;48.942;9.256;2023-10-09T05:36:23;14.48;;;10.85;;
434;SDS011;204;48.942;9.256;2023-10-09T05:38:49;14.13;;;10.70;;
434;SDS011;204;48.942;9.256;2023-10-09T05:41:26;15.20;;;10.50;;
434;SDS011;204;48.942;9.256;2023-10-09T05:44:10;15.70;;;9.55;;
434;SDS011;204;48.942;9.256;2023-10-09T05:46:54;17.23;;;12.38;;
434;SDS011;204;48.942;9.256;2023-10-09T05:49:38;15.85;;;11.10;;
434;SDS011;204;48.942;9.256;2023-10-09T05:52:39;18.95;;;11.60;;
434;SDS011;204;48.942;9.256;2023-10-09T05:55:05;20.30;;;12.60;;
434;SDS011;204;48.942;9.256;2023-10-09T05:57:40;20.95;;;12.90;;
434;SDS011;204;48.942;9.256;2023-10-09T06:00:25;17.05;;;12.02;;
434;SDS011;204;48.942;9.256;2023-10-09T06:03:10;20.60;;;12.18;;
434;SDS011;204;48.942;9.256;2023-10-09T06:08:26;19.85;;;12.30;;
434;SDS011;204;48.942;9.256;2023-10-09T06:11:11;18.67;;;12.10;;
434;SDS011;204;48.942;9.256;2023-10-09T06:13:56;19.13;;;11.05;;
434;SDS011;204;48.942;9.256;2023-10-09T06:16:37;19.77;;;10.52;;
434;SDS011;204;48.942;9.256;2023-10-09T06:19:11;16.38;;;10.77;;
434;SDS011;204;48.942;9.256;2023-10-09T06:21:40;22.15;;;11.60;;
434;SDS011;204;48.942;9.256;2023-10-09T06:24:25;14.95;;;8.50;;
434;SDS011;204;48.942;9.256;2023-10-09T06:26:58;12.10;;;8.25;;
434;SDS011;204;48.942;9.256;2023-10-09T06:29:28;16.38;;;9.10;;
434;SDS011;204;48.942;9.256;2023-10-09T06:32:01;17.60;;;10.05;;
434;SDS011;204;48.942;9.256;2023-10-09T06:34:46;13.23;;;8.70;;
434;SDS011;204;48.942;9.256;2023-10-09T06:37:21;16.50;;;9.57;;
434;SDS011;204;48.942;9.256;2023-10-09T06:39:48;16.35;;;8.63;;
434;SDS011;204;48.942;9.256;2023-10-09T06:42:20;11.95;;;9.43;;
434;SDS011;204;48.942;9.256;2023-10-09T06:45:02;17.50;;;9.25;;
434;SDS011;204;48.942;9.256;2023-10-09T06:47:38;18.80;;;10.02;;
434;SDS011;204;48.942;9.256;2023-10-09T06:50:10;16.58;;;10.43;;
434;SDS011;204;48.942;9.256;2023-10-09T06:52:45;22.27;;;9.98;;
434;SDS011;204;48.942;9.256;2023-10-09T06:55:43;21.58;;;11.02;;
434;SDS011;204;48.942;9.256;2023-10-09T06:58:16;16.25;;;10.73;;
434;SDS011;204;48.942;9.256;2023-10-09T07:00:52;19.48;;;10.63;;
434;SDS011;204;48.942;9.256;2023-10-09T07:03:37;20.33;;;9.55;;
434;SDS011;204;48.942;9.256;2023-10-09T07:06:17;20.80;;;10.50;;
434;SDS011;204;48.942;9.256;2023-10-09T07:08:55;15.40;;;9.73;;
434;SDS011;204;48.942;9.256;2023-10-09T07:11:33;16.27;;;10.82;;
434;SDS011;204;48.942;9.256;2023-10-09T07:14:14;18.30;;;10.30;;
434;SDS011;204;48.942;9.256;2023-10-09T07:16:55;17.50;;;8.88;;
434;SDS011;204;48.942;9.256;2023-10-09T07:19:50;18.83;;;10.15;;
434;SDS011;204;48.942;9.256;2023-10-09T07:22:20;19.42;;;10.70;;
434;SDS011;204;48.942;9.256;2023-10-09T07:24:46;17.10;;;9.23;;
434;SDS011;204;48.942;9.256;2023-10-09T07:27:31;15.07;;;8.85;;
434;SDS011;204;48.942;9.256;2023-10-09T07:30:08;19.02;;;10.18;;
434;SDS011;204;48.942;9.256;2023-10-09T07:32:56;13.10;;;9.52;;
434;SDS011;204;48.942;9.256;2023-10-09T07:35:31;15.50;;;8.85;;
434;SDS011;204;48.942;9.256;2023-10-09T07:38:06;15.82;;;8.60;;
434;SDS011;204;48.942;9.256;2023-10-09T07:40:37;12.85;;;8.48;;
434;SDS011;204;48.942;9.256;2023-10-09T07:43:23;14.93;;;9.25;;
434;SDS011;204;48.942;9.256;2023-10-09T07:45:52;13.03;;;8.37;;
434;SDS011;204;48.942;9.256;2023-10-09T07:48:24;17.53;;;9.07;;
434;SDS011;204;48.942;9.256;2023-10-09T07:50:50;11.63;;;8.37;;
434;SDS011;204;48.942;9.256;2023-10-09T07:53:22;13.68;;;8.40;;
434;SDS011;204;48.942;9.256;2023-10-09T07:55:54;10.93;;;8.40;;
434;SDS011;204;48.942;9.256;2023-10-09T07:58:23;14.57;;;8.23;;
434;SDS011;204;48.942;9.256;2023-10-09T08:00:57;11.87;;;7.00;;
434;SDS011;204;48.942;9.256;2023-10-09T08:03:22;15.70;;;8.80;;
434;SDS011;204;48.942;9.256;2023-10-09T08:05:49;20.80;;;7.50;;
434;SDS011;204;48.942;9.256;2023-10-09T08:08:18;9.53;;;7.43;;
434;SDS011;204;48.942;9.256;2023-10-09T08:11:04;19.40;;;6.80;;
434;SDS011;204;48.942;9.256;2023-10-09T08:13:50;13.50;;;7.10;;
434;SDS011;204;48.942;9.256;2023-10-09T08:16:24;10.20;;;6.60;;
434;SDS011;204;48.942;9.256;2023-10-09T08:19:01;13.33;;;7.40;;
434;SDS011;204;48.942;9.256;2023-10-09T08:21:48;12.57;;;7.43;;
434;SDS011;204;48.942;9.256;2023-10-09T08:24:32;11.03;;;7.80;;
434;SDS011;204;48.942;9.256;2023-10-09T08:27:06;15.30;;;7.70;;
434;SDS011;204;48.942;9.256;2023-10-09T08:29:50;11.30;;;6.93;;
434;SDS011;204;48.942;9.256;2023-10-09T08:32:36;13.90;;;6.83;;
434;SDS011;204;48.942;9.256;2023-10-09T08:35:07;17.43;;;8.63;;
434;SDS011;204;48.942;9.256;2023-10-09T08:37:53;9.53;;;5.83;;
434;SDS011;204;48.942;9.256;2023-10-09T08:40:28;11.93;;;6.70;;
434;SDS011;204;48.942;9.256;2023-10-09T08:45:53;12.40;;;6.13;;
434;SDS011;204;48.942;9.256;2023-10-09T08:48:26;11.13;;;6.40;;
434;SDS011;204;48.942;9.256;2023-10-09T08:50:52;32.53;;;21.70;;
434;SDS011;204;48.942;9.256;2023-10-09T08:53:22;14.40;;;7.87;;
434;SDS011;204;48.942;9.256;2023-10-09T08:55:49;11.77;;;6.60;;
434;SDS011;204;48.942;9.256;2023-10-09T08:58:16;12.37;;;6.60;;
434;SDS011;204;48.942;9.256;2023-10-09T09:01:02;19.03;;;7.13;;
434;SDS011;204;48.942;9.256;2023-10-09T09:03:37;13.47;;;7.10;;
434;SDS011;204;48.942;9.256;2023-10-09T09:06:04;11.40;;;5.37;;
434;SDS011;204;48.942;9.256;2023-10-09T09:08:30;22.37;;;6.97;;
434;SDS011;204;48.942;9.256;2023-10-09T09:11:02;14.90;;;6.60;;
434;SDS011;204;48.942;9.256;2023-10-09T09:13:38;15.33;;;7.80;;
434;SDS011;204;48.942;9.256;2023-10-09T09:16:13;16.10;;;7.03;;
434;SDS011;204;48.942;9.256;2023-10-09T09:18:48;17.33;;;7.70;;
434;SDS011;204;48.942;9.256;2023-10-09T09:21:33;13.57;;;6.40;;
434;SDS011;204;48.942;9.256;2023-10-09T09:24:08;10.63;;;7.77;;
434;SDS011;204;48.942;9.256;2023-10-09T09:26:41;14.63;;;6.83;;
434;SDS011;204;48.942;9.256;2023-10-09T09:29:11;12.20;;;6.20;;
434;SDS011;204;48.942;9.256;2023-10-09T09:31:39;17.43;;;6.93;;
434;SDS011;204;48.942;9.256;2023-10-09T09:34:20;14.13;;;7.30;;
434;SDS011;204;48.942;9.256;2023-10-09T09:36:55;13.70;;;5.70;;
434;SDS011;204;48.942;9.256;2023-10-09T09:39:22;12.40;;;5.63;;
434;SDS011;204;48.942;9.256;2023-10-09T09:41:59;18.57;;;6.50;;
434;SDS011;204;48.942;9.256;2023-10-09T09:44:42;16.00;;;7.70;;
434;SDS011;204;48.942;9.256;2023-10-09T09:47:12;17.00;;;7.43;;
434;SDS011;204;48.942;9.256;2023-10-09T09:49:42;23.33;;;7.00;;
434;SDS011;204;48.942;9.256;2023-10-09T09:52:08;16.23;;;6.40;;
434;SDS011;204;48.942;9.256;2023-10-09T09:54:37;13.13;;;6.00;;
434;SDS011;204;48.942;9.256;2023-10-09T09:57:04;15.10;;;6.50;;
434;SDS011;204;48.942;9.256;2023-10-09T09:59:36;21.70;;;7.37;;
434;SDS011;204;48.942;9.256;2023-10-09T10:02:05;20.80;;;6.90;;
434;SDS011;204;48.942;9.256;2023-10-09T10:04:36;16.00;;;7.30;;
434;SDS011;204;48.942;9.256;2023-10-09T10:07:08;12.93;;;5.03;;
434;SDS011;204;48.942;9.256;2023-10-09T10:09:37;17.10;;;6.07;;
434;SDS011;204;48.942;9.256;2023-10-09T10:12:09;16.63;;;6.37;;
434;SDS011;204;48.942;9.256;2023-10-09T10:14:54;15.63;;;6.77;;
434;SDS011;204;48.942;9.256;2023-10-09T10:20:24;19.17;;;5.77;;
434;SDS011;204;48.942;9.256;2023-10-09T10:22:50;15.13;;;6.23;;
434;SDS011;204;48.942;9.256;2023-10-09T10:25:37;18.33;;;6.63;;
434;SDS011;204;48.942;9.256;2023-10-09T10:28:24;16.40;;;5.57;;
434;SDS011;204;48.942;9.256;2023-10-09T10:31:11;9.70;;;5.47;;
434;SDS011;204;48.942;9.256;2023-10-09T10:36:19;18.03;;;6.33;;
434;SDS011;204;48.942;9.256;2023-10-09T10:38:58;17.57;;;6.90;;
434;SDS011;204;48.942;9.256;2023-10-09T10:41:29;17.27;;;6.57;;
434;SDS011;204;48.942;9.256;2023-10-09T10:44:01;14.17;;;7.10;;
434;SDS011;204;48.942;9.256;2023-10-09T10:46:45;17.37;;;5.77;;
434;SDS011;204;48.942;9.256;2023-10-09T10:49:16;15.97;;;6.57;;
434;SDS011;204;48.942;9.256;2023-10-09T10:51:47;23.40;;;10.93;;
434;SDS011;204;48.942;9.256;2023-10-09T10:54:20;29.00;;;15.00;;
434;SDS011;204;48.942;9.256;2023-10-09T10:56:56;46.40;;;27.77;;
434;SDS011;204;48.942;9.256;2023-10-09T10:59:23;68.10;;;40.30;;
434;SDS011;204;48.942;9.256;2023-10-09T11:01:52;68.70;;;44.17;;
434;SDS011;204;48.942;9.256;2023-10-09T11:04:22;61.77;;;39.07;;
434;SDS011;204;48.942;9.256;2023-10-09T11:06:55;25.40;;;15.90;;
434;SDS011;204;48.942;9.256;2023-10-09T11:12:27;25.47;;;14.10;;
434;SDS011;204;48.942;9.256;2023-10-09T11:15:10;17.80;;;6.93;;
434;SDS011;204;48.942;9.256;2023-10-09T11:17:57;19.27;;;10.30;;
434;SDS011;204;48.942;9.256;2023-10-09T11:20:36;14.90;;;6.67;;
434;SDS011;204;48.942;9.256;2023-10-09T11:23:18;18.57;;;5.53;;
434;SDS011;204;48.942;9.256;2023-10-09T11:25:54;13.47;;;5.30;;
434;SDS011;204;48.942;9.256;2023-10-09T11:28:40;15.80;;;6.60;;
434;SDS011;204;48.942;9.256;2023-10-09T11:31:14;13.37;;;5.30;;
434;SDS011;204;48.942;9.256;2023-10-09T11:33:50;15.67;;;5.37;;
434;SDS011;204;48.942;9.256;2023-10-09T11:36:18;14.77;;;5.20;;
434;SDS011;204;48.942;9.256;2023-10-09T11:38:57;11.00;;;6.07;;
434;SDS011;204;48.942;9.256;2023-10-09T11:41:42;13.83;;;5.53;;
434;SDS011;204;48.942;9.256;2023-10-09T11:44:09;16.47;;;5.23;;
434;SDS011;204;48.942;9.256;2023-10-09T11:46:57;18.63;;;7.87;;
434;SDS011;204;48.942;9.256;2023-10-09T11:49:46;15.53;;;6.80;;
434;SDS011;204;48.942;9.256;2023-10-09T11:52:26;11.43;;;6.33;;
434;SDS011;204;48.942;9.256;2023-10-09T11:55:21;21.60;;;8.77;;
434;SDS011;204;48.942;9.256;2023-10-09T11:57:50;23.20;;;8.30;;
434;SDS011;204;48.942;9.256;2023-10-09T12:00:16;18.50;;;8.70;;
434;SDS011;204;48.942;9.256;2023-10-09T12:02:54;23.23;;;9.33;;
434;SDS011;204;48.942;9.256;2023-10-09T12:05:20;15.07;;;8.57;;
434;SDS011;204;48.942;9.256;2023-10-09T12:07:46;15.23;;;7.93;;
434;SDS011;204;48.942;9.256;2023-10-09T12:10:14;18.93;;;6.00;;
434;SDS011;204;48.942;9.256;2023-10-09T12:12:40;16.43;;;6.30;;
434;SDS011;204;48.942;9.256;2023-10-09T12:15:11;16.50;;;5.70;;
434;SDS011;204;48.942;9.256;2023-10-09T12:17:42;15.30;;;5.50;;
434;SDS011;204;48.942;9.256;2023-10-09T12:20:09;16.97;;;4.93;;
434;SDS011;204;48.942;9.256;2023-10-09T12:22:46;13.73;;;5.70;;
434;SDS011;204;48.942;9.256;2023-10-09T12:25:12;14.30;;;5.20;;
434;SDS011;204;48.942;9.256;2023-10-09T12:27:38;12.30;;;5.37;;
434;SDS011;204;48.942;9.256;2023-10-09T12:30:04;15.93;;;5.93;;
434;SDS011;204;48.942;9.256;2023-10-09T12:32:30;17.60;;;6.40;;
434;SDS011;204;48.942;9.256;2023-10-09T12:35:00;12.47;;;5.20;;
434;SDS011;204;48.942;9.256;2023-10-09T12:37:25;11.77;;;5.63;;
434;SDS011;204;48.942;9.256;2023-10-09T12:39:51;18.63;;;6.10;;
434;SDS011;204;48.942;9.256;2023-10-09T12:42:20;14.00;;;6.80;;
434;SDS011;204;48.942;9.256;2023-10-09T12:44:47;12.67;;;6.80;;
434;SDS011;204;48.942;9.256;2023-10-09T12:47:13;18.67;;;6.30;;
434;SDS011;204;48.942;9.256;2023-10-09T12:49:39;12.00;;;5.87;;
434;SDS011;204;48.942;9.256;2023-10-09T12:52:06;13.73;;;6.67;;
434;SDS011;204;48.942;9.256;2023-10-09T12:54:40;14.10;;;5.40;;
434;SDS011;204;48.942;9.256;2023-10-09T12:57:11;14.10;;;6.60;;
434;SDS011;204;48.942;9.256;2023-10-09T12:59:39;10.80;;;5.37;;
434;SDS011;204;48.942;9.256;2023-10-09T13:02:10;17.00;;;7.50;;
434;SDS011;204;48.942;9.256;2023-10-09T13:04:37;10.67;;;6.17;;
434;SDS011;204;48.942;9.256;2023-10-09T13:07:06;14.43;;;6.30;;
434;SDS011;204;48.942;9.256;2023-10-09T13:09:33;15.47;;;7.57;;
434;SDS011;204;48.942;9.256;2023-10-09T13:12:07;11.33;;;6.63;;
434;SDS011;204;48.942;9.256;2023-10-09T13:14:34;19.80;;;7.17;;
434;SDS011;204;48.942;9.256;2023-10-09T13:17:00;16.30;;;7.23;;
434;SDS011;204;48.942;9.256;2023-10-09T13:19:34;15.90;;;6.70;;
434;SDS011;204;48.942;9.256;2023-10-09T13:21:59;15.37;;;6.10;;
434;SDS011;204;48.942;9.256;2023-10-09T13:24:28;15.87;;;7.33;;
434;SDS011;204;48.942;9.256;2023-10-09T13:26:55;15.20;;;6.33;;
434;SDS011;204;48.942;9.256;2023-10-09T13:29:23;16.00;;;7.07;;
434;SDS011;204;48.942;9.256;2023-10-09T13:31:49;19.90;;;7.33;;
434;SDS011;204;48.942;9.256;2023-10-09T13:34:17;17.83;;;6.40;;
434;SDS011;204;48.942;9.256;2023-10-09T13:36:43;16.40;;;5.93;;
434;SDS011;204;48.942;9.256;2023-10-09T13:39:18;19.60;;;6.80;;
434;SDS011;204;48.942;9.256;2023-10-09T13:41:44;18.30;;;9.30;;
434;SDS011;204;48.942;9.256;2023-10-09T13:44:14;18.90;;;8.37;;
434;SDS011;204;48.942;9.256;2023-10-09T13:46:40;20.37;;;6.00;;
434;SDS011;204;48.942;9.256;2023-10-09T13:49:09;12.07;;;6.10;;
434;SDS011;204;48.942;9.256;2023-10-09T13:51:39;10.27;;;5.30;;
434;SDS011;204;48.942;9.256;2023-10-09T13:54:12;11.10;;;5.10;;
434;SDS011;204;48.942;9.256;2023-10-09T13:56:53;13.83;;;5.77;;
434;SDS011;204;48.942;9.256;2023-10-09T13:59:20;15.93;;;5.80;;
434;SDS011;204;48.942;9.256;2023-10-09T14:01:48;11.07;;;5.73;;
434;SDS011;204;48.942;9.256;2023-10-09T14:04:14;15.37;;;5.73;;
434;SDS011;204;48.942;9.256;2023-10-09T14:06:44;13.30;;;6.00;;
434;SDS011;204;48.942;9.256;2023-10-09T14:09:10;11.57;;;5.33;;
434;SDS011;204;48.942;9.256;2023-10-09T14:11:36;15.00;;;6.00;;
434;SDS011;204;48.942;9.256;2023-10-09T14:14:04;11.63;;;5.00;;
434;SDS011;204;48.942;9.256;2023-10-09T14:16:35;16.50;;;7.07;;
434;SDS011;204;48.942;9.256;2023-10-09T14:19:01;11.63;;;5.17;;
434;SDS011;204;48.942;9.256;2023-10-09T14:21:32;10.50;;;6.07;;
434;SDS011;204;48.942;9.256;2023-10-09T14:24:03;16.30;;;5.60;;
434;SDS011;204;48.942;9.256;2023-10-09T14:26:41;24.53;;;6.30;;
434;SDS011;204;48.942;9.256;2023-10-09T14:29:07;11.83;;;5.50;;
434;SDS011;204;48.942;9.256;2023-10-09T14:31:33;13.93;;;6.07;;
434;SDS011;204;48.942;9.256;2023-10-09T14:34:04;12.30;;;6.80;;
434;SDS011;204;48.942;9.256;2023-10-09T14:36:34;15.23;;;5.83;;
434;SDS011;204;48.942;9.256;2023-10-09T14:39:00;16.20;;;7.10;;
434;SDS011;204;48.942;9.256;2023-10-09T14:41:26;20.27;;;7.10;;
434;SDS011;204;48.942;9.256;2023-10-09T14:43:58;13.17;;;6.90;;
434;SDS011;204;48.942;9.256;2023-10-09T14:46:24;19.03;;;6.10;;
434;SDS011;204;48.942;9.256;2023-10-09T14:48:53;9.17;;;5.87;;
434;SDS011;204;48.942;9.256;2023-10-09T14:51:21;14.73;;;6.70;;
434;SDS011;204;48.942;9.256;2023-10-09T14:53:55;15.50;;;6.50;;
434;SDS011;204;48.942;9.256;2023-10-09T14:56:27;17.57;;;6.67;;
434;SDS011;204;48.942;9.256;2023-10-09T14:58:58;19.40;;;6.37;;
434;SDS011;204;48.942;9.256;2023-10-09T15:01:25;18.37;;;8.47;;
434;SDS011;204;48.942;9.256;2023-10-09T15:03:57;17.27;;;6.90;;
434;SDS011;204;48.942;9.256;2023-10-09T15:06:25;15.07;;;6.13;;
434;SDS011;204;48.942;9.256;2023-10-09T15:08:55;12.63;;;5.60;;
434;SDS011;204;48.942;9.256;2023-10-09T15:11:25;14.10;;;6.40;;
434;SDS011;204;48.942;9.256;2023-10-09T15:13:53;15.07;;;7.37;;
434;SDS011;204;48.942;9.256;2023-10-09T15:16:23;16.60;;;7.27;;
434;SDS011;204;48.942;9.256;2023-10-09T15:18:51;23.90;;;7.07;;
434;SDS011;204;48.942;9.256;2023-10-09T15:21:19;21.50;;;7.07;;
434;SDS011;204;48.942;9.256;2023-10-09T15:23:51;17.17;;;7.80;;
434;SDS011;204;48.942;9.256;2023-10-09T15:26:20;16.40;;;6.70;;
434;SDS011;204;48.942;9.256;2023-10-09T15:28:47;18.37;;;7.73;;
434;SDS011;204;48.942;9.256;2023-10-09T15:31:14;21.63;;;7.33;;
434;SDS011;204;48.942;9.256;2023-10-09T15:33:41;16.10;;;5.83;;
434;SDS011;204;48.942;9.256;2023-10-09T15:36:14;15.30;;;6.90;;
434;SDS011;204;48.942;9.256;2023-10-09T15:38:45;21.30;;;7.60;;
434;SDS011;204;48.942;9.256;2023-10-09T15:41:12;13.80;;;6.43;;
434;SDS011;204;48.942;9.256;2023-10-09T15:43:40;12.50;;;6.13;;
434;SDS011;204;48.942;9.256;2023-10-09T15:46:15;14.27;;;8.10;;
434;SDS011;204;48.942;9.256;2023-10-09T15:48:42;12.57;;;7.57;;
434;SDS011;204;48.942;9.256;2023-10-09T15:51:10;10.30;;;6.30;;
434;SDS011;204;48.942;9.256;2023-10-09T15:53:39;18.80;;;7.27;;
434;SDS011;204;48.942;9.256;2023-10-09T15:56:06;15.97;;;6.70;;
434;SDS011;204;48.942;9.256;2023-10-09T15:58:32;13.60;;;8.57;;
434;SDS011;204;48.942;9.256;2023-10-09T16:00:58;15.93;;;8.27;;
434;SDS011;204;48.942;9.256;2023-10-09T16:03:25;14.93;;;6.87;;
434;SDS011;204;48.942;9.256;2023-10-09T16:05:52;12.27;;;7.27;;
434;SDS011;204;48.942;9.256;2023-10-09T16:08:18;14.30;;;6.77;;
434;SDS011;204;48.942;9.256;2023-10-09T16:10:47;12.50;;;7.10;;
434;SDS011;204;48.942;9.256;2023-10-09T16:13:13;13.73;;;8.37;;
434;SDS011;204;48.942;9.256;2023-10-09T16:15:43;15.50;;;8.67;;